Terminal Aerodrome Forecast
Issued by NWS

Home | Current Version | Previous Version | Text Only | Print | Product List | Glossary On
Versions: 1 2 3 4 5 6 7 8 9 10 11 12 13 14 15 16 17 18 19 20 21 22 23 24 25 26
000
FTUS45 KREV 210500
TAFCXP
TAF
KCXP 210539Z 2106/2206 VRB04KT P6SM FEW200
     FM212200 28010KT P6SM VCTS SCT100CB BKN180
      TEMPO 2123/2202 VRB15G28KT -TSRA SCT060 BKN090CB
     FM220300 VRB04KT P6SM FEW090 BKN200=

USA.gov is the U.S. government's official web portal to all federal, state and local government web resources and services.